• Join FlightAware (Why Join?)
  • Login
  • US Flag 
04:18AM EST


 

Airport Tracker/Info


-or-


 

Live Flight TrackerFlight Track Log ✈ N318TJ ✈ 18-Aug-2013 ✈ KMTP - KMMU

Flight Track Log - Related Links

Times and Time Zones

All times are in EDT time to prevent confusion due to time zone crossing. See the N318TJ flight status page for this flight to view local times or setup timezone preferences in your user account.

Time Position Orientation Groundspeed Altitude Reporting Facility
EDT Latitude Longitude Course Direction KTS MPH feet Rate Location/Type
10:30AM 41.0925 -71.9417 280° West 112 129 1,300  Level Boston Center
10:31AM 41.0992 -71.9939 280° West 105 121 2,500 1,020 Climbing Boston Center
10:32AM 41.1264 -72.0433 306° West 176 203 3,500 660 Climbing Boston Center
10:33AM 41.1556 -72.0681 327° Northwest 148 170 4,000 240 Climbing Boston Center
10:34AM 41.1975 -72.1119 322° Northwest 187 215 4,000  Level Boston Center
10:35AM 41.2350 -72.1447 327° Northwest 166 191 4,000  Level Boston Center
10:36AM 41.2747 -72.1861 322° Northwest 175 201 4,000  Level Boston Center
10:37AM 41.3122 -72.2244 322° Northwest 169 194 4,000  Level Boston Center
10:38AM 41.3458 -72.2575 324° Northwest 163 188 4,000  Level Boston Center
10:39AM 41.3811 -72.2933 323° Northwest 178 205 4,000  Level Boston Center
10:40AM 41.4167 -72.3350 319° Northwest 155 178 4,000  Level Boston Center
10:41AM 41.4083 -72.4014 261° West 163 188 4,000  Level Boston Center
10:42AM 41.4000 -72.4650 260° West 164 189 4,100 660 Climbing Boston Center
10:44AM 41.3833 -72.5667 258° West 129 148 6,200 600 Climbing New York TRACON
10:45AM 41.3833 -72.6333 270° West 168 193 6,100 -60 Descending New York TRACON
10:46AM 41.3833 -72.6833 270° West 172 198 6,100 -60 Level New York TRACON
10:53AM 41.3340 -73.0990 270° West 171 197 5,800  Descending FlightAware
10:53AM 41.3333 -73.1167 240° Southwest 170 196 6,100  Climbing New York TRACON
10:53AM 41.3300 -73.1300 260° West 171 197 5,800 -480 Descending FlightAware
10:54AM 41.3270 -73.1570 262° West 171 197 5,800 420 Level FlightAware
10:54AM 41.3333 -73.1833 270° West 174 200 6,100  Climbing New York TRACON
10:54AM 41.3240 -73.1840 262° West 171 197 5,800 -720 Descending FlightAware
10:54AM 41.3220 -73.2040 262° West 171 197 5,800  Level FlightAware
10:55AM 41.3180 -73.2450 263° West 171 197 5,800 -60 Level FlightAware
10:58AM 41.2636 -73.3699 240° Southwest  Level Estimated
11:00AM 41.2860 -73.5330 270° West 171 197 5,700  Level FlightAware
11:00AM 41.2840 -73.5440 256° West 171 197 5,700  Level FlightAware
11:00AM 41.2810 -73.5700 261° West 172 198 5,700 -180 Level FlightAware
11:01AM 41.2790 -73.5910 263° West 180 207 5,600 -240 Descending FlightAware
11:01AM 41.2760 -73.6220 263° West 180 207 5,500 -480 Descending FlightAware
11:02AM 41.2760 -73.6220 263° West 180 207 5,100 -420 Descending FlightAware
11:05AM 41.2532 -73.8661 263° West 3,700 -360 Descending FlightAware ADS-B
11:06AM 41.2460 -73.9430 263° West 174 200 3,700  Level FlightAware
11:06AM 41.2440 -73.9600 261° West 174 200 3,700  Level FlightAware
11:06AM 41.2430 -73.9740 265° West 174 200 3,700  Level FlightAware
11:07AM 41.2410 -73.9930 262° West 173 199 3,700  Level FlightAware
11:07AM 41.2390 -74.0150 263° West 173 199 3,700  Level FlightAware
11:07AM 41.2370 -74.0310 261° West 173 199 3,700  Level FlightAware
11:07AM 41.2350 -74.0520 263° West 173 199 3,700  Level FlightAware
11:08AM 41.2330 -74.0750 263° West 175 201 3,700  Level FlightAware
11:08AM 41.2300 -74.1060 263° West 177 204 3,700  Level FlightAware
11:09AM 41.2280 -74.1240 262° West 176 203 3,700  Level FlightAware
11:09AM 41.2270 -74.1410 266° West 177 204 3,700  Level FlightAware
11:09AM 41.2250 -74.1600 262° West 177 204 3,700  Level FlightAware
11:10AM 41.2221 -74.1898 263° West 178 205 3,700  Level FlightAware ADS-B
11:10AM 41.2199 -74.2120 263° West 177 204 3,700  Level FlightAware ADS-B
11:11AM 41.2130 -74.2470 255° West 171 197 3,700  Level FlightAware
11:11AM 41.2030 -74.2580 220° Southwest 170 196 3,700  Level FlightAware
11:11AM 41.1930 -74.2710 224° Southwest 171 197 3,700  Level FlightAware
11:11AM 41.1840 -74.2800 217° Southwest 171 197 3,700  Level FlightAware
11:12AM 41.1700 -74.2970 222° Southwest 173 199 3,700  Level FlightAware
11:12AM 41.1540 -74.3160 222° Southwest 173 199 3,700  Level FlightAware
11:12AM 41.1460 -74.3240 217° Southwest 173 199 3,700  Level FlightAware
11:13AM 41.1330 -74.3390 221° Southwest 172 198 3,700  Level FlightAware
11:13AM 41.1190 -74.3550 221° Southwest 170 196 3,700  Level FlightAware
11:13AM 41.1130 -74.3620 221° Southwest 171 197 3,700  Level FlightAware
11:14AM 41.0980 -74.3790 221° Southwest 170 196 3,700  Level FlightAware
11:14AM 41.0860 -74.3930 221° Southwest 171 197 3,700  Level FlightAware
11:14AM 41.0740 -74.4060 219° Southwest 172 198 3,700  Level FlightAware
11:15AM 41.0610 -74.4210 221° Southwest 173 199 3,700 -240 Level FlightAware
11:15AM 41.0520 -74.4293 215° Southwest 3,700 -420 Level FlightAware ADS-B
11:15AM 41.0392 -74.4356 200° South 182 209 3,500 -960 Descending FlightAware ADS-B
11:16AM 41.0100 -74.4490 199° South 192 221 2,900 -900 Descending FlightAware
11:16AM 40.9930 -74.4570 200° South 193 222 2,700 -300 Descending FlightAware
11:17AM 40.9750 -74.4660 201° Southwest 193 222 2,700  Level FlightAware
11:17AM 40.9580 -74.4750 202° Southwest 173 199 2,700  Level FlightAware
11:17AM 40.9420 -74.4820 198° South 169 194 2,700  Level FlightAware
11:18AM 40.9240 -74.4910 201° Southwest 169 194 2,700  Level FlightAware
11:18AM 40.9100 -74.4980 201° Southwest 169 194 2,700  Level FlightAware
11:18AM 40.8980 -74.5040 201° Southwest 168 193 2,700  Level FlightAware
11:19AM 40.8750 -74.5150 200° South 169 194 2,700  Level FlightAware
11:19AM 40.8590 -74.5220 198° South 169 194 2,700  Level FlightAware
11:20AM 40.8440 -74.5300 202° Southwest 170 196 2,700  Level FlightAware
11:20AM 40.8290 -74.5370 199° South 169 194 2,700  Level FlightAware
11:20AM 40.8260 -74.5370 180° South 167 192 2,700  Level FlightAware
11:20AM 40.8070 -74.5390 185° South 167 192 2,700 -720 Level FlightAware
11:22AM 40.7667 -74.4667 185° South 132 152 1,400 -840 Descending New York TRACON
11:23AM 40.7667 -74.4333 90° East 93 107 800 -360 Descending New York TRACON
11:24AM 40.7833 -74.4167 37° Northeast 85 98 700 -120 Descending New York TRACON